createdAt,value
2023-04-11T00:00:03.084Z,57.5
2023-04-11T00:01:01.941Z,57.0
2023-04-11T00:02:02.342Z,52.4
2023-04-11T00:03:02.467Z,52.9
2023-04-11T00:04:02.309Z,50.2
2023-04-11T00:05:02.150Z,51.3
2023-04-11T00:06:01.907Z,48.7
2023-04-11T00:07:02.180Z,51.8
2023-04-11T00:08:02.112Z,54.5
2023-04-11T00:09:02.135Z,56.2
2023-04-11T00:10:01.872Z,54.8
2023-04-11T00:11:02.011Z,51.3
2023-04-11T00:12:02.382Z,52.2
2023-04-11T00:13:02.104Z,48.4
2023-04-11T00:14:02.090Z,46.6
2023-04-11T00:15:02.068Z,47.5
2023-04-11T00:16:02.079Z,47.8
2023-04-11T00:17:02.085Z,45.5
2023-04-11T00:18:01.333Z,45.1
2023-04-11T00:19:01.132Z,43.1
2023-04-11T00:20:01.195Z,41.6
2023-04-11T00:21:01.964Z,48.6
2023-04-11T00:22:02.073Z,53.7
2023-04-11T00:23:01.937Z,53.4
2023-04-11T00:24:02.090Z,54.9
2023-04-11T00:25:02.301Z,59.5
2023-04-11T00:26:02.267Z,57.2
2023-04-11T00:27:01.887Z,58.4
2023-04-11T00:28:02.146Z,58.5
2023-04-11T00:29:02.024Z,57.3
2023-04-11T00:30:02.123Z,56.2
2023-04-11T00:31:01.997Z,54.0
2023-04-11T00:32:02.392Z,59.2
2023-04-11T00:33:02.129Z,57.8
2023-04-11T00:34:02.008Z,57.1
2023-04-11T00:35:02.367Z,59.9
2023-04-11T00:36:02.131Z,63.3
2023-04-11T00:37:02.115Z,55.2
2023-04-11T00:38:01.055Z,54.0
2023-04-11T00:39:02.159Z,51.6
2023-04-11T00:40:02.073Z,56.9
2023-04-11T00:41:01.950Z,57.5
2023-04-11T00:42:02.214Z,56.9
2023-04-11T00:43:02.019Z,58.3
2023-04-11T00:44:01.976Z,58.5
2023-04-11T00:45:02.230Z,65.4
2023-04-11T00:46:02.174Z,62.5
2023-04-11T00:47:01.956Z,58.2
2023-04-11T00:48:02.046Z,58.0
2023-04-11T00:49:02.010Z,60.0
2023-04-11T00:50:02.156Z,56.1
2023-04-11T00:51:02.024Z,61.7
2023-04-11T00:52:02.015Z,59.4
2023-04-11T00:53:02.258Z,62.8
2023-04-11T00:54:01.908Z,66.1
2023-04-11T00:55:02.283Z,61.0
2023-04-11T00:56:01.975Z,55.2
2023-04-11T00:57:01.978Z,52.8
2023-04-11T00:58:01.123Z,50.0
2023-04-11T00:59:01.864Z,46.8
2023-04-11T01:00:02.003Z,50.6
2023-04-11T01:01:01.215Z,44.4
2023-04-11T01:02:01.225Z,44.1
2023-04-11T01:03:02.039Z,42.2
2023-04-11T01:04:02.407Z,50.0
2023-04-11T01:05:01.779Z,44.7
2023-04-11T01:06:02.296Z,45.2
2023-04-11T01:07:02.057Z,43.9
2023-04-11T01:08:01.803Z,47.9
2023-04-11T01:09:02.124Z,50.0
2023-04-11T01:10:01.833Z,47.6
2023-04-11T01:11:02.027Z,44.8
2023-04-11T01:12:01.954Z,47.3
2023-04-11T01:13:02.327Z,47.6
2023-04-11T01:14:01.959Z,49.4
2023-04-11T01:15:01.852Z,47.4
2023-04-11T01:16:01.140Z,38.6
2023-04-11T01:17:01.079Z,36.8
2023-04-11T01:18:01.075Z,34.4
2023-04-11T01:19:01.032Z,35.0
2023-04-11T01:20:01.185Z,33.9
2023-04-11T01:21:01.128Z,37.3
2023-04-11T01:22:01.059Z,31.6
2023-04-11T01:23:01.201Z,30.4
2023-04-11T01:24:01.382Z,40.4
2023-04-11T01:25:01.064Z,41.7
2023-04-11T01:26:01.806Z,43.4
2023-04-11T01:27:01.838Z,46.6
2023-04-11T01:28:01.922Z,47.3
2023-04-11T01:29:01.823Z,45.0
2023-04-11T01:30:01.306Z,46.2
2023-04-11T01:31:01.961Z,42.2
2023-04-11T01:32:02.213Z,45.6
2023-04-11T01:33:02.298Z,44.8
2023-04-11T01:34:01.841Z,43.8
2023-04-11T01:35:02.549Z,44.5
2023-04-11T01:36:01.858Z,47.4
2023-04-11T01:37:02.059Z,43.3
2023-04-11T01:38:01.009Z,45.5
2023-04-11T01:39:02.008Z,41.5
2023-04-11T01:40:01.003Z,44.6
2023-04-11T01:41:00.994Z,40.6
2023-04-11T01:42:01.017Z,40.6
2023-04-11T01:43:01.925Z,40.2
2023-04-11T01:44:01.995Z,40.7
2023-04-11T01:45:01.091Z,39.1
2023-04-11T01:46:01.092Z,36.0
2023-04-11T01:47:01.005Z,36.2
2023-04-11T01:48:01.070Z,37.1
2023-04-11T01:49:01.128Z,37.2
2023-04-11T01:50:00.965Z,37.0
2023-04-11T01:51:01.997Z,38.3
2023-04-11T01:52:00.972Z,40.9
2023-04-11T01:53:01.058Z,38.1
2023-04-11T01:54:01.055Z,35.4
2023-04-11T01:55:00.999Z,34.7
2023-04-11T01:56:00.965Z,34.4
2023-04-11T01:57:01.144Z,35.8
2023-04-11T01:58:00.985Z,35.6
2023-04-11T01:59:01.044Z,37.0
2023-04-11T02:00:01.027Z,35.3
2023-04-11T02:01:01.072Z,37.1
2023-04-11T02:02:01.394Z,37.5
2023-04-11T02:03:01.199Z,37.7
2023-04-11T02:04:01.109Z,35.3
2023-04-11T02:05:01.187Z,37.2
2023-04-11T02:06:01.246Z,37.3
2023-04-11T02:07:00.983Z,36.4
2023-04-11T02:08:00.957Z,36.5
2023-04-11T02:09:00.911Z,34.4
2023-04-11T02:10:00.880Z,36.8
2023-04-11T02:11:03.795Z,36.4
2023-04-11T02:12:00.929Z,35.1
2023-04-11T02:13:00.930Z,34.3
2023-04-11T02:14:00.884Z,34.7
2023-04-11T02:15:00.894Z,37.1
2023-04-11T02:16:00.944Z,36.7
2023-04-11T02:17:00.874Z,38.3
2023-04-11T02:18:01.855Z,40.6
2023-04-11T02:19:00.909Z,40.1
2023-04-11T02:20:00.955Z,38.3
2023-04-11T02:21:01.000Z,40.9
2023-04-11T02:22:00.946Z,38.0
2023-04-11T02:23:00.861Z,38.2
2023-04-11T02:24:01.033Z,37.5
2023-04-11T02:25:00.882Z,39.0
2023-04-11T02:26:01.019Z,37.2
2023-04-11T02:27:00.895Z,38.9
2023-04-11T02:28:00.885Z,37.5
2023-04-11T02:29:01.623Z,37.8
2023-04-11T02:30:01.781Z,40.3
2023-04-11T02:31:01.746Z,38.7
2023-04-11T02:32:01.838Z,39.0
2023-04-11T02:33:01.122Z,38.2
2023-04-11T02:34:01.577Z,36.8
2023-04-11T02:35:01.628Z,39.1
2023-04-11T02:36:01.963Z,39.2
2023-04-11T02:37:00.866Z,37.2
2023-04-11T02:38:00.899Z,36.9
2023-04-11T02:39:00.825Z,35.9
2023-04-11T02:40:01.199Z,36.8
2023-04-11T02:41:00.842Z,34.6
2023-04-11T02:42:01.666Z,36.1
2023-04-11T02:43:01.587Z,36.0
2023-04-11T02:44:00.865Z,38.1
2023-04-11T02:45:01.583Z,36.2
2023-04-11T02:46:11.518Z,36.2
2023-04-11T02:47:00.895Z,35.2
2023-04-11T02:48:00.982Z,33.4
2023-04-11T02:49:00.858Z,33.4
2023-04-11T02:50:00.953Z,32.1
2023-04-11T02:51:00.924Z,33.9
2023-04-11T02:52:00.870Z,33.0
2023-04-11T02:53:00.914Z,33.6
2023-04-11T02:54:00.866Z,32.2
2023-04-11T02:55:00.831Z,34.4
2023-04-11T02:56:00.901Z,32.9
2023-04-11T02:57:40.302Z,33.2
2023-04-11T02:58:00.841Z,35.1
2023-04-11T02:59:00.807Z,35.5
2023-04-11T03:00:00.838Z,34.0
2023-04-11T03:01:00.832Z,35.0
2023-04-11T03:02:01.005Z,38.2
2023-04-11T03:03:00.943Z,37.0
2023-04-11T03:04:01.891Z,34.4
2023-04-11T03:05:00.765Z,37.4
2023-04-11T03:06:00.822Z,35.2
2023-04-11T03:07:00.843Z,35.9
2023-04-11T03:08:00.819Z,34.1
2023-04-11T03:09:00.892Z,36.0
2023-04-11T03:10:00.768Z,36.1
2023-04-11T03:11:00.769Z,35.8
2023-04-11T03:12:00.794Z,34.4
2023-04-11T03:13:00.821Z,34.8
2023-04-11T03:14:00.834Z,34.5
2023-04-11T03:15:00.990Z,35.1
2023-04-11T03:16:00.935Z,35.4
2023-04-11T03:17:00.813Z,34.2
2023-04-11T03:18:00.831Z,35.8
2023-04-11T03:19:00.761Z,34.5
2023-04-11T03:20:00.789Z,35.2
2023-04-11T03:21:00.815Z,36.7
2023-04-11T03:22:00.768Z,35.4
2023-04-11T03:23:00.770Z,36.2
2023-04-11T03:24:00.784Z,34.7
2023-04-11T03:25:00.810Z,35.5
2023-04-11T03:26:00.761Z,36.1
2023-04-11T03:27:00.791Z,36.4
2023-04-11T03:28:00.867Z,37.0
2023-04-11T03:29:00.756Z,36.0
2023-04-11T03:30:00.816Z,37.2
2023-04-11T03:31:00.787Z,36.9
2023-04-11T03:32:00.793Z,35.9
2023-04-11T03:33:01.098Z,36.0
2023-04-11T03:34:00.776Z,35.6
2023-04-11T03:35:00.778Z,36.3
2023-04-11T03:36:00.939Z,36.3
2023-04-11T03:37:00.728Z,39.2
2023-04-11T03:38:02.450Z,36.4
2023-04-11T03:39:02.808Z,35.5
2023-04-11T03:40:01.502Z,37.4
2023-04-11T03:41:00.770Z,35.7
2023-04-11T03:42:00.780Z,35.5
2023-04-11T03:43:02.992Z,35.2
2023-04-11T03:44:00.811Z,35.3
2023-04-11T03:45:00.769Z,36.1
2023-04-11T03:46:01.551Z,33.7
2023-04-11T03:47:01.228Z,35.4
2023-04-11T03:48:00.744Z,33.7
2023-04-11T03:49:00.729Z,33.5
2023-04-11T03:50:00.879Z,34.8
2023-04-11T03:51:00.794Z,34.2
2023-04-11T03:52:00.759Z,34.8
2023-04-11T03:53:01.598Z,34.1
2023-04-11T03:54:00.726Z,34.0
2023-04-11T03:55:02.287Z,35.8
2023-04-11T03:56:00.806Z,33.6
2023-04-11T03:57:00.714Z,32.2
2023-04-11T03:58:00.724Z,35.1
2023-04-11T03:59:00.713Z,36.5
2023-04-11T04:00:01.864Z,35.1
2023-04-11T04:01:00.735Z,35.5
2023-04-11T04:02:00.812Z,34.7
2023-04-11T04:03:01.800Z,34.9
2023-04-11T04:04:01.182Z,35.9
2023-04-11T04:05:00.722Z,33.6
2023-04-11T04:06:00.679Z,34.6
2023-04-11T04:07:00.715Z,34.0
2023-04-11T04:08:00.704Z,34.5
2023-04-11T04:09:00.709Z,35.8
2023-04-11T04:10:01.630Z,34.4
2023-04-11T04:11:00.671Z,35.2
2023-04-11T04:12:00.687Z,34.9
2023-04-11T04:13:00.757Z,33.4
2023-04-11T04:14:00.712Z,35.0
2023-04-11T04:15:00.700Z,34.4
2023-04-11T04:16:03.424Z,34.2
2023-04-11T04:17:00.711Z,35.8
2023-04-11T04:18:00.775Z,32.5
2023-04-11T04:19:00.657Z,34.1
2023-04-11T04:20:00.744Z,32.9
2023-04-11T04:21:00.681Z,33.7
2023-04-11T04:22:02.873Z,33.9
2023-04-11T04:23:00.692Z,33.4
2023-04-11T04:24:00.712Z,32.3
2023-04-11T04:25:00.702Z,32.8
2023-04-11T04:26:01.679Z,32.7
2023-04-11T04:27:00.704Z,31.8
2023-04-11T04:28:00.638Z,32.6
2023-04-11T04:29:00.627Z,31.2
2023-04-11T04:30:04.098Z,33.5
2023-04-11T04:31:01.703Z,35.7
2023-04-11T04:32:00.797Z,36.0
2023-04-11T04:33:01.832Z,34.6
2023-04-11T04:34:00.670Z,35.7
2023-04-11T04:35:00.627Z,35.2
2023-04-11T04:36:00.962Z,33.2
2023-04-11T04:37:01.995Z,34.3
2023-04-11T04:38:01.829Z,33.2
2023-04-11T04:39:01.830Z,35.4
2023-04-11T04:40:01.844Z,36.0
2023-04-11T04:41:01.396Z,37.6
2023-04-11T04:42:01.306Z,37.4
2023-04-11T04:43:01.392Z,37.5
2023-04-11T04:44:01.540Z,40.1
2023-04-11T04:45:01.524Z,40.7
2023-04-11T04:46:01.463Z,39.3
2023-04-11T04:47:01.396Z,39.9
2023-04-11T04:48:01.381Z,40.1
2023-04-11T04:49:02.282Z,44.0
2023-04-11T04:50:01.338Z,39.9
2023-04-11T04:51:01.308Z,44.7
2023-04-11T04:52:01.377Z,41.3
2023-04-11T04:53:01.505Z,41.9
2023-04-11T04:54:01.354Z,40.8
2023-04-11T04:55:01.612Z,39.2
2023-04-11T04:56:01.447Z,41.7
2023-04-11T04:57:01.596Z,40.3
2023-04-11T04:58:01.457Z,39.2
2023-04-11T04:59:01.385Z,38.6
2023-04-11T05:00:00.727Z,37.3
2023-04-11T05:01:01.415Z,36.8
2023-04-11T05:02:01.425Z,35.3
2023-04-11T05:03:01.581Z,38.7
2023-04-11T05:04:02.066Z,38.7
2023-04-11T05:05:01.279Z,38.7
2023-04-11T05:06:01.498Z,38.1
2023-04-11T05:07:01.322Z,38.3
2023-04-11T05:08:00.596Z,44.6
2023-04-11T05:09:01.377Z,48.0
2023-04-11T05:10:01.440Z,48.9
2023-04-11T05:11:01.474Z,53.1
2023-04-11T05:12:01.552Z,50.6
2023-04-11T05:13:01.452Z,52.2
2023-04-11T05:14:29.854Z,54.7
2023-04-11T05:15:01.323Z,54.5
2023-04-11T05:16:01.359Z,55.0
2023-04-11T05:17:01.530Z,56.0
2023-04-11T05:18:01.314Z,54.4
2023-04-11T05:19:01.526Z,57.8
2023-04-11T05:20:01.380Z,56.5
2023-04-11T05:21:01.273Z,56.7
2023-04-11T05:22:01.428Z,57.2
2023-04-11T05:23:01.275Z,58.5
2023-04-11T05:24:01.301Z,57.4
2023-04-11T05:25:01.368Z,53.8
2023-04-11T05:26:01.305Z,55.5
2023-04-11T05:27:01.284Z,54.1
2023-04-11T05:28:01.319Z,53.6
2023-04-11T05:29:01.251Z,58.1
2023-04-11T05:30:01.405Z,56.9
2023-04-11T05:31:01.455Z,60.4
2023-04-11T05:32:01.377Z,59.4
2023-04-11T05:33:01.346Z,61.0
2023-04-11T05:34:01.294Z,59.7
2023-04-11T05:35:01.398Z,62.3
2023-04-11T05:36:01.451Z,65.5
2023-04-11T05:37:01.342Z,62.8
2023-04-11T05:38:01.437Z,62.3
2023-04-11T05:39:01.500Z,62.1
2023-04-11T05:40:01.589Z,62.1
2023-04-11T05:41:01.325Z,62.8
2023-04-11T05:42:01.838Z,69.8
2023-04-11T05:43:01.385Z,70.8
2023-04-11T05:44:01.519Z,71.7
2023-04-11T05:45:01.255Z,65.9
2023-04-11T05:46:01.448Z,66.8
2023-04-11T05:47:02.108Z,66.8
2023-04-11T05:48:01.492Z,66.4
2023-04-11T05:49:01.398Z,66.3
2023-04-11T05:50:01.261Z,66.0
2023-04-11T05:51:01.278Z,66.8
2023-04-11T05:52:01.392Z,67.6
2023-04-11T05:53:01.278Z,69.4
2023-04-11T05:54:01.328Z,73.5
2023-04-11T05:55:01.508Z,70.5
2023-04-11T05:56:01.407Z,69.1
2023-04-11T05:57:01.377Z,67.6
2023-04-11T05:58:01.416Z,69.5
2023-04-11T05:59:01.183Z,74.4
2023-04-11T06:00:03.296Z,72.5
2023-04-11T06:01:01.247Z,75.5
2023-04-11T06:02:01.355Z,76.4
2023-04-11T06:03:01.367Z,71.2
2023-04-11T06:04:01.677Z,67.3
2023-04-11T06:05:01.253Z,63.6
2023-04-11T06:06:01.226Z,61.2
2023-04-11T06:07:01.518Z,59.6
2023-04-11T06:08:01.279Z,60.2
2023-04-11T06:09:01.193Z,60.9
2023-04-11T06:10:01.398Z,58.3
2023-04-11T06:11:01.203Z,58.8
2023-04-11T06:12:01.483Z,61.3
2023-04-11T06:13:01.261Z,58.3
2023-04-11T06:14:01.177Z,57.4
2023-04-11T06:15:01.303Z,62.3
2023-04-11T06:16:00.520Z,60.0
2023-04-11T06:17:01.361Z,58.1
2023-04-11T06:18:00.658Z,62.3
2023-04-11T06:19:00.480Z,58.6
2023-04-11T06:20:00.663Z,57.9
2023-04-11T06:21:00.530Z,57.0
2023-04-11T06:22:00.683Z,56.7
2023-04-11T06:23:00.723Z,57.3
2023-04-11T06:24:00.459Z,54.0
2023-04-11T06:25:00.841Z,51.3
2023-04-11T06:26:00.587Z,52.3
2023-04-11T06:27:00.548Z,54.4
2023-04-11T06:28:00.471Z,54.6
2023-04-11T06:29:00.491Z,58.1
2023-04-11T06:30:00.502Z,55.2
2023-04-11T06:31:00.513Z,55.3
2023-04-11T06:32:00.604Z,52.4
2023-04-11T06:33:00.646Z,51.9
2023-04-11T06:34:00.408Z,53.3
2023-04-11T06:35:00.596Z,49.3
2023-04-11T06:36:00.458Z,47.8
2023-04-11T06:37:00.494Z,45.9
2023-04-11T06:38:00.456Z,47.2
2023-04-11T06:39:00.449Z,43.5
2023-04-11T06:40:00.481Z,45.4
2023-04-11T06:41:01.275Z,44.1
2023-04-11T06:42:01.269Z,89.5
2023-04-11T06:43:01.271Z,133.4
2023-04-11T06:44:01.397Z,141.6
2023-04-11T06:45:01.170Z,82.2
2023-04-11T06:46:01.285Z,151.6
2023-04-11T06:47:00.467Z,87.1
2023-04-11T06:48:00.610Z,77.3
2023-04-11T06:49:00.584Z,61.2
2023-04-11T06:50:00.419Z,50.4
2023-04-11T06:51:00.512Z,46.6
2023-04-11T06:52:00.641Z,46.3
2023-04-11T06:53:00.415Z,41.9
2023-04-11T06:54:00.385Z,45.0
2023-04-11T06:55:00.469Z,43.2
2023-04-11T06:56:00.466Z,46.7
2023-04-11T06:57:00.596Z,45.7
2023-04-11T06:58:00.366Z,43.7
2023-04-11T06:59:00.390Z,43.1
2023-04-11T07:00:00.427Z,42.0
2023-04-11T07:01:00.466Z,42.6
2023-04-11T07:02:00.637Z,44.1
2023-04-11T07:03:00.683Z,44.8
2023-04-11T07:04:00.785Z,45.1
2023-04-11T07:05:00.404Z,44.8
2023-04-11T07:06:00.402Z,45.1
2023-04-11T07:07:00.379Z,44.0
2023-04-11T07:08:00.424Z,43.8
2023-04-11T07:09:00.366Z,41.7
2023-04-11T07:10:00.592Z,42.5
2023-04-11T07:11:00.414Z,38.6
2023-04-11T07:12:00.400Z,38.4
2023-04-11T07:13:00.366Z,36.4
2023-04-11T07:14:00.388Z,36.9
2023-04-11T07:15:00.415Z,37.6
2023-04-11T07:16:00.506Z,36.8
2023-04-11T07:17:00.412Z,35.7
2023-04-11T07:18:00.483Z,35.5
2023-04-11T07:19:00.399Z,34.5
2023-04-11T07:25:00.655Z,35.8
2023-04-11T07:26:00.370Z,34.6
2023-04-11T07:27:00.439Z,33.3
2023-04-11T07:28:00.378Z,32.6
2023-04-11T07:29:00.342Z,32.0
2023-04-11T07:30:00.430Z,31.6
2023-04-11T07:31:00.380Z,28.8
2023-04-11T07:32:00.529Z,28.9
2023-04-11T07:33:00.767Z,25.5
2023-04-11T07:34:00.366Z,24.0
2023-04-11T07:35:00.455Z,24.4
2023-04-11T07:36:00.408Z,25.7
2023-04-11T07:37:00.359Z,25.0
2023-04-11T07:38:00.655Z,26.4
2023-04-11T07:39:00.347Z,25.5
2023-04-11T07:40:00.390Z,24.8
2023-04-11T07:41:00.380Z,20.1
2023-04-11T07:42:00.319Z,20.1
2023-04-11T07:43:00.327Z,22.6
2023-04-11T07:44:00.375Z,21.4
2023-04-11T07:45:00.641Z,21.6
2023-04-11T07:46:00.539Z,20.6
2023-04-11T07:47:00.431Z,21.7
2023-04-11T07:48:00.516Z,21.2
2023-04-11T07:49:00.397Z,20.1
2023-04-11T07:50:00.303Z,20.9
2023-04-11T07:51:00.526Z,19.2
2023-04-11T07:52:00.378Z,19.1
2023-04-11T07:53:00.333Z,18.4
2023-04-11T07:54:00.404Z,17.2
2023-04-11T07:55:00.383Z,18.4
2023-04-11T07:56:00.370Z,17.1
2023-04-11T07:57:00.312Z,18.7
2023-04-11T07:58:00.327Z,18.1
2023-04-11T07:59:00.332Z,19.9
2023-04-11T08:00:00.363Z,18.2
2023-04-11T08:01:00.563Z,17.8
2023-04-11T08:02:00.416Z,18.1
2023-04-11T08:03:00.593Z,18.5
2023-04-11T08:04:00.899Z,17.7
2023-04-11T08:05:02.120Z,17.1
2023-04-11T08:06:00.419Z,17.2
2023-04-11T08:07:00.295Z,18.7
2023-04-11T08:08:00.514Z,17.3
2023-04-11T08:09:01.329Z,15.2
2023-04-11T08:10:00.331Z,14.4
2023-04-11T08:11:00.291Z,15.6
2023-04-11T08:12:00.337Z,15.1
2023-04-11T08:13:00.280Z,12.9
2023-04-11T08:14:00.313Z,13.8
2023-04-11T08:15:06.920Z,12.6
2023-04-11T08:16:04.537Z,13.6
2023-04-11T08:17:02.368Z,13.1
2023-04-11T08:18:00.401Z,11.7
2023-04-11T08:19:06.304Z,11.3
2023-04-11T08:20:02.314Z,10.7
2023-04-11T08:21:00.274Z,10.3
2023-04-11T08:22:00.367Z,13.5
2023-04-11T08:23:00.332Z,11.5
2023-04-11T08:24:00.470Z,10.7
2023-04-11T08:25:01.696Z,11.0
2023-04-11T08:26:02.121Z,10.8
2023-04-11T08:27:00.409Z,11.3
2023-04-11T08:28:00.468Z,8.9
2023-04-11T08:29:00.347Z,9.1
2023-04-11T08:30:10.692Z,8.1
2023-04-11T08:31:00.335Z,7.1
2023-04-11T08:32:02.362Z,10.5
2023-04-11T08:33:04.416Z,10.7
2023-04-11T08:34:01.177Z,11.2
2023-04-11T08:35:00.478Z,11.9
2023-04-11T08:36:00.302Z,11.7
2023-04-11T08:37:00.330Z,11.2
2023-04-11T08:38:06.351Z,11.4
2023-04-11T08:39:23.291Z,10.3
2023-04-11T08:40:04.523Z,9.2
2023-04-11T08:41:00.578Z,8.9
2023-04-11T08:42:01.818Z,7.9
2023-04-11T08:43:00.316Z,9.0
2023-04-11T08:44:01.668Z,7.8
2023-04-11T08:45:10.943Z,11.0
2023-04-11T08:46:00.282Z,9.2
2023-04-11T08:47:01.562Z,9.1
2023-04-11T08:48:00.278Z,6.5
2023-04-11T08:49:00.240Z,6.0
2023-04-11T08:50:00.231Z,5.8
2023-04-11T08:51:04.767Z,5.3
2023-04-11T08:52:00.434Z,5.6
2023-04-11T08:53:10.758Z,5.5
2023-04-11T08:54:03.156Z,5.3
2023-04-11T08:55:00.258Z,5.3
2023-04-11T08:56:01.409Z,5.8
2023-04-11T08:57:00.255Z,4.9
2023-04-11T08:58:01.498Z,5.1
2023-04-11T08:59:00.263Z,5.3
2023-04-11T09:00:00.365Z,4.4
2023-04-11T09:01:00.296Z,4.3
2023-04-11T09:02:01.790Z,4.2
2023-04-11T09:03:00.409Z,4.5
2023-04-11T09:04:10.955Z,3.9
2023-04-11T09:05:00.282Z,4.1
2023-04-11T09:06:00.245Z,4.4
2023-04-11T09:07:01.176Z,3.8
2023-04-11T09:08:00.323Z,3.9
2023-04-11T09:09:01.671Z,4.3
2023-04-11T09:10:00.283Z,3.9
2023-04-11T09:11:02.859Z,4.5
2023-04-11T09:12:00.165Z,4.2
2023-04-11T09:13:00.230Z,4.2
2023-04-11T09:14:00.225Z,3.9
2023-04-11T09:15:01.744Z,3.9
2023-04-11T09:16:00.285Z,3.9
2023-04-11T09:17:00.213Z,3.6
2023-04-11T09:18:01.261Z,3.7
2023-04-11T09:19:00.156Z,3.3
2023-04-11T09:20:00.232Z,3.3
2023-04-11T09:21:00.284Z,4.1
2023-04-11T09:22:00.284Z,3.7
2023-04-11T09:23:00.559Z,3.5
2023-04-11T09:24:00.256Z,3.9
2023-04-11T09:25:00.258Z,3.7
2023-04-11T09:26:00.244Z,3.8
2023-04-11T09:27:02.821Z,3.8
2023-04-11T09:28:00.207Z,3.5
2023-04-11T09:29:00.281Z,3.9
2023-04-11T09:30:00.219Z,3.4
2023-04-11T09:31:00.197Z,3.8
2023-04-11T09:32:00.241Z,4.1
2023-04-11T09:33:00.306Z,4.0
2023-04-11T09:34:10.594Z,3.8
2023-04-11T09:35:05.479Z,3.8
2023-04-11T09:36:00.340Z,4.0
2023-04-11T09:37:00.176Z,4.1
2023-04-11T09:38:00.332Z,4.4
2023-04-11T09:39:00.158Z,3.7
2023-04-11T09:40:00.261Z,3.7
2023-04-11T09:41:01.633Z,4.1
2023-04-11T09:42:00.212Z,4.3
2023-04-11T09:43:00.278Z,3.8
2023-04-11T09:44:00.175Z,4.0
2023-04-11T09:45:00.406Z,3.9
2023-04-11T09:46:00.132Z,3.6
2023-04-11T09:47:00.450Z,3.9
2023-04-11T09:48:00.235Z,4.0
2023-04-11T09:49:00.227Z,4.2
2023-04-11T09:50:00.236Z,4.1
2023-04-11T09:51:00.159Z,3.9
2023-04-11T09:52:01.550Z,3.7
2023-04-11T09:53:00.196Z,4.4
2023-04-11T09:54:00.218Z,4.0
2023-04-11T09:55:00.412Z,4.2
2023-04-11T09:56:00.134Z,4.1
2023-04-11T09:57:00.171Z,4.1
2023-04-11T09:58:00.200Z,4.2
2023-04-11T09:59:00.307Z,4.0
2023-04-11T10:00:00.203Z,4.3
2023-04-11T10:01:00.166Z,4.9
2023-04-11T10:02:00.292Z,4.2
2023-04-11T10:03:00.290Z,4.3
2023-04-11T10:04:00.495Z,4.5
2023-04-11T10:05:00.279Z,4.4
2023-04-11T10:06:00.399Z,4.6
2023-04-11T10:07:00.163Z,4.6
2023-04-11T10:08:00.227Z,4.7
2023-04-11T10:09:00.141Z,4.8
2023-04-11T10:10:00.168Z,4.3
2023-04-11T10:11:00.336Z,4.5
2023-04-11T10:12:15.874Z,5.1
2023-04-11T10:13:00.120Z,4.5
2023-04-11T10:14:01.471Z,4.7
2023-04-11T10:15:01.545Z,4.6
2023-04-11T10:16:00.309Z,4.4
2023-04-11T10:17:01.025Z,4.6
2023-04-11T10:18:00.171Z,4.8
2023-04-11T10:19:00.233Z,4.7
2023-04-11T10:20:00.170Z,4.5
2023-04-11T10:21:03.015Z,5.2
2023-04-11T10:22:03.030Z,4.9
2023-04-11T10:23:10.741Z,4.6
2023-04-11T10:24:04.376Z,4.4
2023-04-11T10:25:00.200Z,4.4
2023-04-11T10:26:00.151Z,4.8
2023-04-11T10:27:00.336Z,5.0
2023-04-11T10:28:00.557Z,4.8
2023-04-11T10:29:00.299Z,5.0
2023-04-11T10:30:04.782Z,5.3
2023-04-11T10:31:05.073Z,4.2
2023-04-11T10:32:10.481Z,4.5
2023-04-11T10:33:10.829Z,4.5
2023-04-11T10:34:00.239Z,4.4
2023-04-11T10:35:01.642Z,4.7
2023-04-11T10:36:00.130Z,5.4
2023-04-11T10:37:00.234Z,4.8
2023-04-11T10:38:00.275Z,4.6
2023-04-11T10:39:00.205Z,4.5
2023-04-11T10:40:00.215Z,5.3
2023-04-11T10:41:00.196Z,5.2
2023-04-11T10:42:00.129Z,4.5
2023-04-11T10:43:00.184Z,4.8
2023-04-11T10:44:00.216Z,4.8
2023-04-11T10:45:00.235Z,4.6
2023-04-11T10:46:00.164Z,4.7
2023-04-11T10:47:00.189Z,4.9
2023-04-11T10:48:00.176Z,5.2
2023-04-11T10:49:00.073Z,5.5
2023-04-11T10:50:00.248Z,5.0
2023-04-11T10:51:00.560Z,5.0
2023-04-11T10:52:00.064Z,5.2
2023-04-11T10:53:00.053Z,4.7
2023-04-11T10:54:00.522Z,5.2
2023-04-11T10:55:00.041Z,5.1
2023-04-11T10:56:00.164Z,5.0
2023-04-11T10:57:00.031Z,4.8
2023-04-11T10:58:00.174Z,5.3
2023-04-11T10:59:00.026Z,4.5
2023-04-11T11:00:00.038Z,4.9
2023-04-11T11:01:00.431Z,5.1
2023-04-11T11:02:00.564Z,5.3
2023-04-11T11:03:00.229Z,5.1
2023-04-11T11:04:00.276Z,5.3
2023-04-11T11:05:00.108Z,4.5
2023-04-11T11:06:01.741Z,5.1
2023-04-11T11:07:01.582Z,4.4
2023-04-11T11:08:00.124Z,5.3
2023-04-11T11:09:00.146Z,5.0
2023-04-11T11:10:00.098Z,4.9
2023-04-11T11:11:00.064Z,5.3
2023-04-11T11:12:00.160Z,5.7
2023-04-11T11:13:00.403Z,5.2
2023-04-11T11:14:01.466Z,6.3
2023-04-11T11:15:01.567Z,5.3
2023-04-11T11:16:00.108Z,5.4
2023-04-11T11:17:00.173Z,6.0
2023-04-11T11:18:02.562Z,5.5
2023-04-11T11:19:00.213Z,5.6
2023-04-11T11:20:00.176Z,5.2
2023-04-11T11:21:00.063Z,5.5
2023-04-11T11:22:00.149Z,5.7
2023-04-11T11:23:00.304Z,5.5
2023-04-11T11:25:00.128Z,5.6
2023-04-11T11:26:01.022Z,5.3
2023-04-11T11:27:00.045Z,5.8
2023-04-11T11:28:00.053Z,5.5
2023-04-11T11:29:00.041Z,4.7
2023-04-11T11:30:01.512Z,5.0
2023-04-11T11:31:00.036Z,5.3
2023-04-11T11:32:00.205Z,5.3
2023-04-11T11:33:01.557Z,4.8
2023-04-11T11:34:21.292Z,4.6
2023-04-11T11:35:01.470Z,4.5
2023-04-11T11:36:00.013Z,5.1
2023-04-11T11:37:01.302Z,4.7
2023-04-11T11:38:00.038Z,5.1
2023-04-11T11:39:00.045Z,4.8
2023-04-11T11:39:59.999Z,4.2
2023-04-11T11:41:00.058Z,5.0
2023-04-11T11:42:00.031Z,4.8
2023-04-11T11:42:59.996Z,4.4
2023-04-11T11:44:00.028Z,4.4
2023-04-11T11:45:00.000Z,4.7
2023-04-11T11:46:00.060Z,4.9
2023-04-11T11:46:59.986Z,4.8
2023-04-11T11:48:00.073Z,4.3
2023-04-11T11:49:00.413Z,4.8
2023-04-11T11:50:00.108Z,5.5
2023-04-11T11:51:00.046Z,4.5
2023-04-11T11:52:00.051Z,4.3
2023-04-11T11:53:00.119Z,4.7
2023-04-11T11:53:59.991Z,4.5
2023-04-11T11:55:01.599Z,4.2
2023-04-11T11:56:15.477Z,4.3
2023-04-11T11:58:36.398Z,4.5
2023-04-11T12:03:08.373Z,5.9
2023-04-11T12:04:06.798Z,4.4
2023-04-11T12:05:07.028Z,4.8
2023-04-11T12:06:06.585Z,4.6
2023-04-11T12:07:13.407Z,4.4
2023-04-11T12:08:07.162Z,4.1
2023-04-11T12:09:06.614Z,4.5
2023-04-11T12:10:06.648Z,4.6
2023-04-11T12:11:06.669Z,4.0
2023-04-11T12:12:06.515Z,4.5
2023-04-11T12:13:06.661Z,5.0
2023-04-11T12:15:10.824Z,4.7
2023-04-11T12:16:12.269Z,5.3
2023-04-11T12:17:10.660Z,4.7
2023-04-11T12:18:10.853Z,4.3
2023-04-11T12:19:10.669Z,4.6
2023-04-11T12:20:21.249Z,4.8
2023-04-11T12:21:11.770Z,4.4
2023-04-11T12:22:11.757Z,5.0
2023-04-11T12:23:19.358Z,4.6
2023-04-11T12:24:10.600Z,4.3
2023-04-11T12:25:11.937Z,4.4
2023-04-11T12:26:10.642Z,4.3
2023-04-11T12:27:12.015Z,4.3
2023-04-11T12:28:10.656Z,5.1
2023-04-11T12:29:10.617Z,4.8
2023-04-11T12:30:10.753Z,4.8
2023-04-11T12:31:10.735Z,5.0
2023-04-11T12:32:12.056Z,4.8
2023-04-11T12:33:10.623Z,4.8
2023-04-11T12:34:10.651Z,5.4
2023-04-11T12:35:10.753Z,5.0
2023-04-11T12:36:21.133Z,5.5
2023-04-11T12:37:10.787Z,5.7
2023-04-11T12:38:13.425Z,5.5
2023-04-11T12:39:10.844Z,5.2
2023-04-11T12:40:10.726Z,5.2
2023-04-11T12:41:30.917Z,5.1
2023-04-11T12:43:11.948Z,5.1
2023-04-11T12:44:10.676Z,5.5
2023-04-11T12:45:12.092Z,5.4
2023-04-11T12:46:10.699Z,5.0
2023-04-11T12:47:10.618Z,5.3
2023-04-11T12:48:10.598Z,5.7
2023-04-11T12:49:10.663Z,5.7
2023-04-11T12:50:10.776Z,5.6
2023-04-11T12:51:10.657Z,19.2
2023-04-11T12:52:14.826Z,9.5
2023-04-11T12:53:10.631Z,6.4
2023-04-11T12:54:10.704Z,19.2
2023-04-11T12:55:10.600Z,8.9
2023-04-11T12:56:10.583Z,5.9
2023-04-11T12:57:10.602Z,5.1
2023-04-11T12:58:10.588Z,5.3
2023-04-11T12:59:10.582Z,5.9
2023-04-11T13:00:10.649Z,5.0
2023-04-11T13:01:10.563Z,5.5
2023-04-11T13:02:10.691Z,5.0
2023-04-11T13:03:10.750Z,5.4
2023-04-11T13:04:10.592Z,5.6
2023-04-11T13:05:10.586Z,9.6
2023-04-11T13:06:10.560Z,17.1
2023-04-11T13:07:10.657Z,7.3
2023-04-11T13:08:10.646Z,5.3
2023-04-11T13:09:10.568Z,5.7
2023-04-11T13:10:10.555Z,4.9
2023-04-11T13:11:10.522Z,5.2
2023-04-11T13:12:10.794Z,5.6
2023-04-11T13:13:17.993Z,5.4
2023-04-11T13:14:10.597Z,5.6
2023-04-11T13:15:10.612Z,6.6
2023-04-11T13:16:10.650Z,14.1
2023-04-11T13:17:10.588Z,7.5
2023-04-11T13:18:10.544Z,7.3
2023-04-11T13:19:10.578Z,7.2
2023-04-11T13:20:10.948Z,7.0
2023-04-11T13:21:10.513Z,6.4
2023-04-11T13:22:10.545Z,5.8
2023-04-11T13:23:11.500Z,6.5
2023-04-11T13:24:10.566Z,6.3
2023-04-11T13:25:10.618Z,6.5
2023-04-11T13:26:10.757Z,6.2
2023-04-11T13:27:10.688Z,6.4
2023-04-11T13:28:10.567Z,5.8
2023-04-11T13:29:11.327Z,5.8
2023-04-11T13:30:10.665Z,6.6
2023-04-11T13:31:11.715Z,6.8
2023-04-11T13:32:10.869Z,6.3
2023-04-11T13:33:10.750Z,6.2
2023-04-11T13:34:11.225Z,7.8
2023-04-11T13:35:10.545Z,8.2
2023-04-11T13:36:10.526Z,13.9
2023-04-11T13:37:10.555Z,10.1
2023-04-11T13:38:10.561Z,13.2
2023-04-11T13:39:10.746Z,24.4
2023-04-11T13:40:10.819Z,32.9